createdAt,value
2023-03-26T06:32:46.548Z,13.30
2023-03-26T06:33:46.543Z,13.90
2023-03-26T06:34:46.466Z,15.30
2023-03-26T06:35:46.630Z,11.40
2023-03-26T06:36:47.619Z,11.70
2023-03-26T06:37:47.578Z,14.40
2023-03-26T06:38:47.512Z,11.70
2023-03-26T06:39:48.544Z,9.30
2023-03-26T06:40:47.498Z,11.70
2023-03-26T06:41:47.484Z,13.80
2023-03-26T06:43:07.746Z,11.80
2023-03-26T06:43:48.517Z,11.60
2023-03-26T06:44:47.504Z,8.90
2023-03-26T06:45:47.462Z,11.20
2023-03-26T06:46:47.547Z,14.20
2023-03-26T06:47:47.558Z,10.50
2023-03-26T06:48:48.176Z,10.20
2023-03-26T06:49:47.428Z,12.40
2023-03-26T06:50:47.360Z,12.10
2023-03-26T06:51:47.438Z,14.00
2023-03-26T06:52:47.358Z,10.70
2023-03-26T06:53:48.355Z,11.50
2023-03-26T06:54:47.349Z,14.90
2023-03-26T06:55:47.360Z,10.90
2023-03-26T06:56:47.400Z,10.90
2023-03-26T06:57:47.429Z,9.60
2023-03-26T06:58:47.358Z,12.30
2023-03-26T06:59:47.312Z,12.90
2023-03-26T07:00:47.577Z,11.00
2023-03-26T07:01:48.053Z,9.50
2023-03-26T07:02:47.351Z,13.10
2023-03-26T07:03:47.444Z,11.60
2023-03-26T07:04:47.292Z,12.70
2023-03-26T07:05:47.238Z,12.10
2023-03-26T07:06:47.328Z,10.10
2023-03-26T07:07:47.416Z,13.90
2023-03-26T07:08:47.533Z,11.20
2023-03-26T07:09:47.245Z,10.80
2023-03-26T07:10:47.228Z,12.00
2023-03-26T07:11:47.214Z,10.40
2023-03-26T07:12:47.252Z,10.70
2023-03-26T07:13:49.422Z,9.70
2023-03-26T07:14:47.262Z,11.30
2023-03-26T07:15:47.267Z,9.80
2023-03-26T07:16:47.176Z,11.30
2023-03-26T07:17:47.278Z,15.00
2023-03-26T07:18:47.283Z,8.50
2023-03-26T07:19:47.190Z,11.50
2023-03-26T07:20:47.113Z,10.40
2023-03-26T07:21:47.362Z,8.50
2023-03-26T07:22:47.054Z,10.40
2023-03-26T07:23:47.642Z,12.40
2023-03-26T07:24:47.109Z,12.10
2023-03-26T07:25:47.275Z,12.60
2023-03-26T07:26:47.033Z,10.50
2023-03-26T07:27:47.355Z,11.00
2023-03-26T07:29:04.717Z,10.00
2023-03-26T07:29:53.532Z,9.10
2023-03-26T07:30:47.350Z,11.70
2023-03-26T07:31:47.271Z,9.40
2023-03-26T07:32:47.222Z,8.50
2023-03-26T07:33:47.127Z,11.00
2023-03-26T07:34:47.052Z,8.80
2023-03-26T07:35:47.102Z,9.60
2023-03-26T07:36:47.070Z,11.30
2023-03-26T07:37:48.197Z,9.10
2023-03-26T07:38:46.960Z,9.80
2023-03-26T07:39:47.121Z,8.30
2023-03-26T07:40:46.987Z,11.10
2023-03-26T07:41:47.168Z,10.90
2023-03-26T07:42:47.137Z,9.30
2023-03-26T07:43:47.339Z,8.30
2023-03-26T07:44:48.490Z,10.60
2023-03-26T07:45:46.945Z,9.10
2023-03-26T07:46:47.008Z,8.20
2023-03-26T07:47:46.862Z,11.30
2023-03-26T07:48:46.950Z,12.80
2023-03-26T07:49:46.965Z,11.90
2023-03-26T07:50:46.892Z,11.70
2023-03-26T07:51:46.810Z,10.60
2023-03-26T07:52:46.841Z,9.70
2023-03-26T07:53:46.914Z,8.40
2023-03-26T07:54:47.076Z,8.50
2023-03-26T07:55:46.803Z,10.10
2023-03-26T07:56:46.871Z,10.10
2023-03-26T07:57:47.008Z,10.10
2023-03-26T07:58:46.798Z,11.00
2023-03-26T07:59:48.936Z,9.70
2023-03-26T08:00:46.760Z,11.00
2023-03-26T08:01:46.854Z,11.50
2023-03-26T08:02:46.981Z,9.00
2023-03-26T08:03:46.880Z,9.10
2023-03-26T08:04:46.936Z,9.80
2023-03-26T08:05:46.783Z,10.60
2023-03-26T08:06:47.303Z,9.00
2023-03-26T08:07:46.719Z,10.30
2023-03-26T08:08:46.639Z,8.90
2023-03-26T08:09:46.683Z,10.00
2023-03-26T08:10:46.639Z,9.70
2023-03-26T08:11:46.785Z,11.50
2023-03-26T08:12:46.609Z,8.10
2023-03-26T08:13:46.693Z,10.40
2023-03-26T08:14:46.822Z,9.10
2023-03-26T08:15:46.820Z,10.60
2023-03-26T08:16:46.735Z,7.70
2023-03-26T08:17:48.460Z,14.10
2023-03-26T08:18:46.940Z,8.50
2023-03-26T08:19:46.501Z,9.40
2023-03-26T08:20:46.701Z,8.00
2023-03-26T08:21:46.632Z,9.40
2023-03-26T08:22:46.585Z,9.30
2023-03-26T08:23:50.931Z,8.90
2023-03-26T08:24:46.538Z,8.80
2023-03-26T08:25:46.551Z,11.80
2023-03-26T08:26:46.521Z,11.80
2023-03-26T08:27:46.436Z,10.50
2023-03-26T08:28:46.687Z,9.80
2023-03-26T08:29:46.493Z,10.40
2023-03-26T08:30:46.513Z,8.80
2023-03-26T08:31:46.446Z,7.70
2023-03-26T08:32:46.405Z,9.80
2023-03-26T08:33:46.411Z,13.40
2023-03-26T08:34:46.382Z,13.00
2023-03-26T08:35:46.744Z,10.70
2023-03-26T08:36:46.368Z,8.30
2023-03-26T08:37:46.687Z,12.80
2023-03-26T08:38:46.950Z,8.10
2023-03-26T08:39:48.077Z,10.40
2023-03-26T08:40:47.125Z,9.10
2023-03-26T08:41:46.329Z,9.20
2023-03-26T08:42:46.444Z,12.60
2023-03-26T08:43:46.382Z,9.90
2023-03-26T08:44:46.244Z,7.80
2023-03-26T08:45:46.605Z,10.40
2023-03-26T08:46:46.351Z,9.30
2023-03-26T08:47:46.691Z,10.30
2023-03-26T08:48:46.249Z,9.30
2023-03-26T08:49:49.333Z,12.40
2023-03-26T08:50:46.321Z,12.20
2023-03-26T08:51:49.123Z,9.50
2023-03-26T08:52:47.164Z,10.00
2023-03-26T08:53:46.180Z,12.80
2023-03-26T08:54:46.519Z,11.90
2023-03-26T08:55:46.198Z,7.70
2023-03-26T08:56:46.267Z,8.40
2023-03-26T08:57:46.181Z,12.60
2023-03-26T08:58:46.923Z,9.10
2023-03-26T08:59:46.140Z,9.10
2023-03-26T09:00:46.138Z,9.20
2023-03-26T09:01:46.200Z,11.00
2023-03-26T09:02:46.139Z,10.80
2023-03-26T09:03:46.144Z,10.50
2023-03-26T09:04:46.192Z,9.70
2023-03-26T09:05:46.030Z,11.50
2023-03-26T09:06:46.144Z,8.70
2023-03-26T09:07:46.107Z,9.90
2023-03-26T09:08:54.510Z,8.40
2023-03-26T09:09:47.009Z,11.60
2023-03-26T09:10:46.006Z,13.60
2023-03-26T09:11:45.963Z,7.40
2023-03-26T09:12:45.990Z,11.50
2023-03-26T09:13:45.985Z,11.40
2023-03-26T09:14:46.007Z,11.60
2023-03-26T09:15:45.907Z,9.90
2023-03-26T09:16:45.998Z,10.70
2023-03-26T09:17:45.949Z,9.10
2023-03-26T09:18:45.907Z,10.10
2023-03-26T09:19:45.933Z,10.70
2023-03-26T09:20:45.871Z,10.90
2023-03-26T09:21:45.988Z,10.80
2023-03-26T09:22:45.870Z,10.90
2023-03-26T09:23:45.864Z,10.70
2023-03-26T09:24:45.871Z,9.10
2023-03-26T09:25:45.929Z,10.50
2023-03-26T09:26:45.827Z,11.60
2023-03-26T09:27:45.800Z,11.10
2023-03-26T09:28:45.780Z,12.90
2023-03-26T09:29:45.831Z,8.40
2023-03-26T09:30:45.874Z,12.70
2023-03-26T09:31:45.822Z,12.60
2023-03-26T09:32:45.805Z,10.80
2023-03-26T09:33:45.782Z,13.40
2023-03-26T09:34:45.746Z,10.40
2023-03-26T09:35:45.807Z,9.60
2023-03-26T09:36:46.298Z,10.40
2023-03-26T09:37:57.969Z,10.80
2023-03-26T09:38:46.713Z,8.40
2023-03-26T09:39:45.783Z,13.30
2023-03-26T09:40:45.686Z,8.10
2023-03-26T09:41:45.737Z,14.50
2023-03-26T09:42:45.655Z,12.50
2023-03-26T09:43:45.666Z,11.00
2023-03-26T09:44:45.767Z,12.00
2023-03-26T09:45:45.639Z,12.50
2023-03-26T09:46:46.576Z,11.10
2023-03-26T09:47:46.685Z,11.40
2023-03-26T09:48:45.771Z,13.60
2023-03-26T09:49:45.688Z,9.90
2023-03-26T09:50:45.617Z,8.60
2023-03-26T09:51:45.603Z,12.00
2023-03-26T09:52:45.557Z,11.90
2023-03-26T09:53:45.718Z,10.20
2023-03-26T09:54:45.630Z,14.30
2023-03-26T09:55:45.570Z,12.40
2023-03-26T09:56:45.565Z,10.50
2023-03-26T09:57:45.574Z,10.10
2023-03-26T09:58:45.575Z,12.00
2023-03-26T09:59:45.518Z,10.70
2023-03-26T10:00:45.628Z,12.20
2023-03-26T10:01:45.522Z,13.40
2023-03-26T10:02:47.410Z,14.00
2023-03-26T10:03:45.503Z,9.30
2023-03-26T10:04:45.740Z,13.70
2023-03-26T10:05:45.541Z,12.20
2023-03-26T10:06:45.529Z,11.90
2023-03-26T10:07:46.367Z,11.90
2023-03-26T10:08:45.488Z,10.60
2023-03-26T10:09:45.582Z,9.60
2023-03-26T10:10:45.471Z,12.40
2023-03-26T10:11:45.427Z,12.50
2023-03-26T10:12:45.422Z,11.20
2023-03-26T10:13:45.483Z,11.80
2023-03-26T10:14:45.428Z,12.20
2023-03-26T10:15:45.349Z,13.30
2023-03-26T10:16:45.456Z,11.60
2023-03-26T10:17:45.385Z,14.20
2023-03-26T10:18:46.427Z,12.30
2023-03-26T10:19:45.356Z,9.50
2023-03-26T10:20:45.599Z,15.20
2023-03-26T10:21:45.339Z,13.00
2023-03-26T10:22:45.344Z,15.10
2023-03-26T10:23:45.601Z,13.30
2023-03-26T10:24:45.372Z,14.40
2023-03-26T10:25:45.879Z,16.30
2023-03-26T10:27:08.383Z,16.90
2023-03-26T10:27:46.265Z,11.00
2023-03-26T10:28:45.333Z,14.50
2023-03-26T10:29:45.355Z,15.00
2023-03-26T10:30:45.330Z,12.40
2023-03-26T10:31:45.281Z,12.80
2023-03-26T10:32:45.976Z,15.80
2023-03-26T10:33:45.333Z,11.40
2023-03-26T10:34:45.308Z,11.20
2023-03-26T10:35:45.445Z,15.90
2023-03-26T10:36:45.535Z,14.30
2023-03-26T10:37:45.622Z,15.70
2023-03-26T10:38:45.402Z,15.10
2023-03-26T10:39:45.214Z,13.80
2023-03-26T10:40:45.289Z,10.00
2023-03-26T10:41:45.333Z,14.50
2023-03-26T10:42:45.287Z,16.90
2023-03-26T10:43:49.776Z,17.50
2023-03-26T10:44:47.222Z,15.40
2023-03-26T10:45:47.228Z,12.30
2023-03-26T10:46:45.242Z,9.70
2023-03-26T10:47:45.134Z,9.50
2023-03-26T10:48:45.265Z,10.50
2023-03-26T10:49:45.033Z,8.70
2023-03-26T10:50:45.316Z,11.40
2023-03-26T10:51:45.426Z,11.90
2023-03-26T10:52:44.970Z,9.90
2023-03-26T10:53:44.962Z,10.40
2023-03-26T10:54:49.419Z,9.20
2023-03-26T10:55:46.012Z,10.10
2023-03-26T10:56:45.003Z,7.70
2023-03-26T10:57:44.988Z,8.00
2023-03-26T11:00:08.709Z,7.70
2023-03-26T11:00:10.337Z,8.00
2023-03-26T11:01:10.807Z,6.60
2023-03-26T11:02:10.447Z,6.80
2023-03-26T11:03:13.521Z,6.40
2023-03-26T11:04:10.539Z,6.40
2023-03-26T11:05:11.040Z,7.00
2023-03-26T11:06:11.138Z,3.80
2023-03-26T11:07:10.246Z,5.80
2023-03-26T11:08:10.782Z,4.60
2023-03-26T11:09:13.904Z,6.10
2023-03-26T11:10:10.511Z,7.10
2023-03-26T11:11:10.364Z,4.60
2023-03-26T11:12:25.661Z,7.50
2023-03-26T11:13:12.211Z,5.00
2023-03-26T11:14:24.372Z,5.30
2023-03-26T11:15:11.160Z,4.60
2023-03-26T11:16:10.953Z,5.00
2023-03-26T11:17:14.879Z,5.50
2023-03-26T11:18:11.185Z,5.80
2023-03-26T11:19:10.104Z,3.80
2023-03-26T11:20:10.093Z,4.50
2023-03-26T11:21:19.249Z,4.90
2023-03-26T11:22:11.111Z,6.60
2023-03-26T11:23:10.449Z,6.70
2023-03-26T11:24:10.096Z,6.90
2023-03-26T11:25:10.587Z,5.80
2023-03-26T11:26:10.202Z,5.10
2023-03-26T11:27:15.170Z,5.20
2023-03-26T11:28:12.208Z,6.70
2023-03-26T11:29:31.782Z,5.00
2023-03-26T11:30:13.699Z,4.70
2023-03-26T11:33:54.914Z,4.80
2023-03-26T11:34:54.213Z,4.10
2023-03-26T11:35:54.168Z,3.50
2023-03-26T11:36:54.209Z,2.40
2023-03-26T11:37:54.061Z,3.70
2023-03-26T11:38:54.022Z,2.90
2023-03-26T11:39:56.457Z,1.40
2023-03-26T11:40:54.567Z,1.90
2023-03-26T11:41:54.657Z,0.90
2023-03-26T11:42:54.240Z,1.80
2023-03-26T11:43:53.946Z,1.50
2023-03-26T11:44:55.077Z,0.70
2023-03-26T11:45:55.195Z,0.80
2023-03-26T11:46:55.092Z,1.00
2023-03-26T11:47:55.143Z,0.80
2023-03-26T11:48:55.067Z,2.20
2023-03-26T11:49:55.262Z,0.80
2023-03-26T11:50:55.619Z,1.60
2023-03-26T11:54:09.654Z,0.90
2023-03-26T11:55:09.679Z,1.70
2023-03-26T11:56:09.646Z,0.80
2023-03-26T11:57:10.979Z,1.30
2023-03-26T11:58:11.218Z,0.90
2023-03-26T11:59:10.758Z,1.30
2023-03-26T12:00:10.830Z,1.60
2023-03-26T12:01:10.749Z,1.40
2023-03-26T12:02:11.773Z,1.80
2023-03-26T12:03:10.707Z,1.80
2023-03-26T12:04:10.781Z,1.00
2023-03-26T12:05:10.667Z,1.10
2023-03-26T12:06:10.714Z,0.50
2023-03-26T12:07:10.753Z,1.00
2023-03-26T12:08:10.641Z,1.10
2023-03-26T12:09:10.659Z,0.70
2023-03-26T12:10:18.489Z,0.90
2023-03-26T12:11:11.613Z,2.30
2023-03-26T12:12:10.581Z,1.50
2023-03-26T12:13:10.601Z,1.10
2023-03-26T12:14:10.616Z,1.80
2023-03-26T12:15:10.588Z,1.00
2023-03-26T12:16:10.607Z,1.80
2023-03-26T12:17:10.566Z,1.60
2023-03-26T12:18:11.230Z,1.10
2023-03-26T12:19:10.512Z,0.80
2023-03-26T12:20:10.539Z,1.50
2023-03-26T12:21:10.578Z,1.30
2023-03-26T12:22:10.497Z,1.90
2023-03-26T12:23:10.471Z,1.90
2023-03-26T12:24:10.474Z,1.40
2023-03-26T12:25:10.438Z,2.10
2023-03-26T12:26:10.491Z,1.00
2023-03-26T12:27:10.431Z,1.10
2023-03-26T12:28:10.445Z,1.40
2023-03-26T12:29:10.431Z,0.90
2023-03-26T12:30:10.454Z,1.00
2023-03-26T12:31:10.449Z,0.70
2023-03-26T12:32:10.378Z,1.40
2023-03-26T12:33:10.413Z,0.50
2023-03-26T12:34:10.353Z,2.00
2023-03-26T12:35:10.352Z,0.90
2023-03-26T12:36:10.401Z,0.90
2023-03-26T12:37:10.319Z,1.60
2023-03-26T12:38:10.326Z,1.30
2023-03-26T12:40:07.851Z,0.70
2023-03-26T12:40:14.975Z,2.10
2023-03-26T12:44:42.939Z,1.20
2023-03-26T12:44:44.673Z,1.20
2023-03-26T12:44:48.106Z,0.90
2023-03-26T12:44:54.488Z,1.00
2023-03-26T12:45:11.268Z,1.00
2023-03-26T12:47:56.147Z,1.00
2023-03-26T12:47:57.630Z,1.10
2023-03-26T12:48:10.328Z,1.90
2023-03-26T12:49:10.318Z,1.20
2023-03-26T12:50:10.194Z,0.80
2023-03-26T12:51:10.225Z,1.60
2023-03-26T12:52:10.302Z,1.60
2023-03-26T12:53:10.197Z,1.10
2023-03-26T12:54:10.127Z,0.80
2023-03-26T12:55:12.247Z,1.30
2023-03-26T12:56:10.176Z,0.70
2023-03-26T12:57:11.975Z,1.50
2023-03-26T12:58:14.017Z,1.00
2023-03-26T12:59:10.151Z,1.50
2023-03-26T13:00:10.118Z,1.10
2023-03-26T13:01:10.146Z,1.80
2023-03-26T13:02:10.114Z,1.80
2023-03-26T13:03:10.159Z,3.30
2023-03-26T13:04:10.156Z,2.40
2023-03-26T13:05:10.094Z,2.10
2023-03-26T13:06:10.111Z,1.40
2023-03-26T13:07:10.018Z,1.00
2023-03-26T13:08:10.091Z,2.00
2023-03-26T13:09:10.039Z,0.90
2023-03-26T13:10:09.997Z,1.00
2023-03-26T13:11:10.089Z,0.70
2023-03-26T13:12:09.969Z,1.20
2023-03-26T13:13:09.995Z,2.30
2023-03-26T13:14:09.983Z,2.20
2023-03-26T13:15:09.978Z,1.80
2023-03-26T13:16:09.979Z,2.40
2023-03-26T13:17:09.977Z,1.40
2023-03-26T13:18:09.926Z,3.60
2023-03-26T13:19:09.945Z,1.60
2023-03-26T13:20:09.922Z,1.70
2023-03-26T13:21:09.850Z,4.40
2023-03-26T13:22:10.046Z,2.90
2023-03-26T13:23:09.890Z,3.90
2023-03-26T13:24:09.859Z,3.20
2023-03-26T13:25:09.863Z,2.10
2023-03-26T13:26:09.825Z,1.50
2023-03-26T13:27:09.879Z,1.00
2023-03-26T13:28:09.850Z,1.60
2023-03-26T13:29:09.854Z,1.70
2023-03-26T13:30:09.787Z,0.90
2023-03-26T13:31:09.842Z,1.30
2023-03-26T13:32:09.802Z,0.80
2023-03-26T13:33:09.747Z,1.90
2023-03-26T13:34:09.814Z,1.30
2023-03-26T13:35:09.773Z,1.40
2023-03-26T13:36:22.459Z,1.50
2023-03-26T13:37:11.769Z,2.30
2023-03-26T13:38:09.691Z,1.30
2023-03-26T13:39:09.731Z,0.60
2023-03-26T13:40:09.676Z,1.20
2023-03-26T13:41:09.727Z,0.90
2023-03-26T13:42:09.692Z,1.00
2023-03-26T13:43:09.709Z,1.30
2023-03-26T13:44:09.706Z,1.20
2023-03-26T13:45:09.643Z,1.30
2023-03-26T13:46:09.674Z,1.60
2023-03-26T13:47:09.646Z,2.20
2023-03-26T13:48:09.657Z,1.60
2023-03-26T13:49:09.614Z,2.80
2023-03-26T13:50:09.572Z,1.30
2023-03-26T13:51:09.581Z,2.40
2023-03-26T13:52:09.751Z,1.50
2023-03-26T13:53:09.597Z,1.80
2023-03-26T13:54:09.524Z,0.90
2023-03-26T13:55:09.555Z,1.10
2023-03-26T13:56:09.530Z,2.10
2023-03-26T13:57:09.582Z,1.00
2023-03-26T13:58:09.531Z,1.40
2023-03-26T13:59:09.537Z,1.50
2023-03-26T14:00:09.526Z,1.00
2023-03-26T14:01:09.552Z,1.50
2023-03-26T14:02:09.538Z,2.00
2023-03-26T14:03:09.509Z,0.60
2023-03-26T14:04:10.454Z,1.30
2023-03-26T14:05:09.472Z,1.10
2023-03-26T14:06:09.464Z,0.70
2023-03-26T14:07:09.439Z,0.80
2023-03-26T14:08:09.409Z,1.50
2023-03-26T14:09:09.380Z,1.10
2023-03-26T14:10:09.428Z,1.60
2023-03-26T14:11:09.501Z,1.10
2023-03-26T14:12:20.944Z,2.00
2023-03-26T14:13:10.337Z,1.50
2023-03-26T14:14:09.435Z,1.90
2023-03-26T14:15:09.355Z,1.30
2023-03-26T14:16:09.386Z,1.80
2023-03-26T14:17:09.343Z,1.50
2023-03-26T14:18:09.917Z,1.50
2023-03-26T14:19:09.282Z,2.00
2023-03-26T14:20:09.340Z,1.80
2023-03-26T14:21:09.289Z,1.50
2023-03-26T14:22:09.312Z,2.40
2023-03-26T14:23:09.295Z,2.20
2023-03-26T14:24:09.313Z,2.40
2023-03-26T14:25:09.280Z,2.10
2023-03-26T14:26:09.258Z,1.50
2023-03-26T14:27:09.250Z,1.90
2023-03-26T14:28:09.237Z,1.10
2023-03-26T14:29:09.209Z,2.50
2023-03-26T14:30:10.151Z,1.60
2023-03-26T14:31:09.279Z,1.80
2023-03-26T14:32:09.194Z,2.00
2023-03-26T14:33:09.220Z,1.80
2023-03-26T14:34:09.126Z,1.20
2023-03-26T14:35:09.168Z,2.30
2023-03-26T14:36:09.403Z,1.10
2023-03-26T14:37:09.152Z,4.70
2023-03-26T14:38:09.096Z,2.30
2023-03-26T14:39:09.106Z,1.90
2023-03-26T14:40:09.087Z,1.70
2023-03-26T14:41:09.111Z,1.60
2023-03-26T14:42:09.118Z,2.10
2023-03-26T14:43:09.665Z,1.30
2023-03-26T14:44:09.113Z,2.20
2023-03-26T14:45:09.141Z,1.50
2023-03-26T14:46:09.003Z,2.90
2023-03-26T14:47:09.132Z,2.50
2023-03-26T14:48:10.334Z,2.40
2023-03-26T14:49:10.015Z,1.50
2023-03-26T14:50:09.141Z,1.60
2023-03-26T14:51:08.974Z,1.90
2023-03-26T14:52:09.005Z,1.60
2023-03-26T14:53:08.946Z,1.80
2023-03-26T14:54:08.923Z,1.60
2023-03-26T14:55:08.957Z,1.70
2023-03-26T14:56:08.961Z,1.80
2023-03-26T14:57:09.163Z,3.10
2023-03-26T14:58:08.996Z,2.80
2023-03-26T14:59:08.930Z,1.50
2023-03-26T15:00:08.929Z,1.90
2023-03-26T15:01:08.880Z,2.10
2023-03-26T15:02:08.988Z,2.60
2023-03-26T15:03:08.931Z,1.90
2023-03-26T15:04:08.991Z,1.30
2023-03-26T15:05:08.846Z,1.80
2023-03-26T15:06:08.858Z,2.30
2023-03-26T15:07:08.793Z,1.30
2023-03-26T15:08:08.843Z,1.90
2023-03-26T15:09:08.863Z,1.80
2023-03-26T15:10:08.805Z,1.30
2023-03-26T15:11:08.837Z,1.60
2023-03-26T15:12:12.758Z,2.80
2023-03-26T15:13:08.813Z,2.40
2023-03-26T15:14:08.814Z,1.60
2023-03-26T15:15:08.752Z,1.10
2023-03-26T15:16:08.773Z,2.00
2023-03-26T15:17:08.741Z,1.50
2023-03-26T15:18:08.743Z,2.80
2023-03-26T15:19:08.704Z,2.30
2023-03-26T15:20:08.696Z,0.90
2023-03-26T15:21:08.664Z,1.60
2023-03-26T15:22:08.731Z,1.60
2023-03-26T15:23:08.690Z,2.60
2023-03-26T15:24:08.665Z,2.10
2023-03-26T15:25:08.764Z,1.50
2023-03-26T15:26:08.650Z,1.70
2023-03-26T15:27:08.609Z,1.10
2023-03-26T15:28:08.639Z,1.80
2023-03-26T15:29:08.648Z,2.30
2023-03-26T15:30:08.571Z,1.60
2023-03-26T15:31:08.568Z,3.50
2023-03-26T15:32:08.611Z,2.30
2023-03-26T15:33:08.696Z,2.40
2023-03-26T15:34:08.570Z,3.60
2023-03-26T15:35:08.584Z,2.40
2023-03-26T15:36:08.771Z,2.30
2023-03-26T15:37:08.496Z,2.40
2023-03-26T15:38:08.493Z,2.60
2023-03-26T15:39:08.512Z,2.50
2023-03-26T15:40:08.528Z,3.20
2023-03-26T15:41:08.467Z,2.50
2023-03-26T15:42:08.431Z,3.60
2023-03-26T15:43:08.527Z,2.90
2023-03-26T15:44:23.510Z,3.50
2023-03-26T15:45:09.478Z,2.70
2023-03-26T15:46:08.446Z,3.30
2023-03-26T15:47:08.548Z,2.90
2023-03-26T15:48:11.147Z,4.20
2023-03-26T15:49:09.708Z,2.40
2023-03-26T15:50:08.363Z,2.80
2023-03-26T15:51:08.385Z,2.50
2023-03-26T15:52:08.379Z,2.30
2023-03-26T15:53:08.365Z,1.90
2023-03-26T15:54:08.361Z,2.80
2023-03-26T15:55:08.353Z,2.50
2023-03-26T15:56:08.352Z,3.30
2023-03-26T15:57:08.362Z,2.70
2023-03-26T15:58:08.320Z,2.60
2023-03-26T15:59:09.151Z,3.20
2023-03-26T16:00:08.239Z,3.90
2023-03-26T16:01:08.310Z,2.50
2023-03-26T16:02:08.283Z,3.80
2023-03-26T16:03:08.263Z,1.80
2023-03-26T16:04:08.472Z,2.30
2023-03-26T16:05:08.264Z,2.60
2023-03-26T16:06:08.194Z,2.60
2023-03-26T16:07:08.192Z,4.10
2023-03-26T16:08:08.210Z,6.90
2023-03-26T16:09:08.197Z,2.60
2023-03-26T16:10:08.165Z,4.30
2023-03-26T16:11:08.187Z,4.40
2023-03-26T16:12:08.113Z,4.10
2023-03-26T16:13:08.160Z,4.30
2023-03-26T16:14:08.176Z,3.90
2023-03-26T16:15:08.144Z,3.60
2023-03-26T16:16:08.122Z,3.50
2023-03-26T16:17:08.121Z,4.30
2023-03-26T16:18:08.140Z,3.60
2023-03-26T16:19:08.046Z,3.70
2023-03-26T16:20:08.088Z,3.70
2023-03-26T16:21:08.092Z,4.20
2023-03-26T16:22:09.212Z,6.00
2023-03-26T16:23:08.041Z,3.90
2023-03-26T16:24:08.241Z,4.00
2023-03-26T16:25:27.281Z,4.80
2023-03-26T16:26:08.035Z,3.60
2023-03-26T16:27:08.059Z,6.50
2023-03-26T16:28:08.015Z,3.90
2023-03-26T16:29:08.068Z,3.50
2023-03-26T16:30:07.958Z,6.10
2023-03-26T16:31:23.470Z,4.10
2023-03-26T16:32:08.972Z,4.40
2023-03-26T16:33:07.976Z,3.70
2023-03-26T16:34:07.994Z,4.50
2023-03-26T16:35:07.947Z,3.90
2023-03-26T16:36:08.679Z,4.60
2023-03-26T16:37:07.863Z,3.80
2023-03-26T16:38:07.880Z,4.10
2023-03-26T16:39:07.943Z,4.10
2023-03-26T16:40:07.880Z,3.80
2023-03-26T16:41:07.896Z,3.50
2023-03-26T16:42:07.873Z,3.30
2023-03-26T16:43:07.832Z,4.90
2023-03-26T16:44:07.834Z,4.00
2023-03-26T16:45:07.766Z,4.00
2023-03-26T16:46:07.841Z,3.20
2023-03-26T16:47:07.750Z,4.40
2023-03-26T16:48:07.902Z,3.50
2023-03-26T16:49:07.778Z,4.50
2023-03-26T16:50:09.537Z,4.30
2023-03-26T16:51:07.758Z,3.90
2023-03-26T16:52:08.788Z,3.40
2023-03-26T16:53:07.741Z,4.10
2023-03-26T16:54:07.784Z,3.50
2023-03-26T16:55:07.697Z,3.80
2023-03-26T16:56:07.703Z,4.70
2023-03-26T16:57:08.746Z,3.70
2023-03-26T16:58:07.724Z,3.70
2023-03-26T16:59:07.648Z,4.20
2023-03-26T17:00:08.027Z,3.60
2023-03-26T17:01:07.648Z,3.50
2023-03-26T17:02:07.723Z,3.60
2023-03-26T17:03:07.811Z,3.40
2023-03-26T17:04:07.647Z,4.50
2023-03-26T17:05:07.600Z,3.50
2023-03-26T17:06:07.598Z,5.40
2023-03-26T17:07:07.641Z,3.80
2023-03-26T17:08:07.667Z,2.90
2023-03-26T17:09:08.853Z,3.60
2023-03-26T17:10:07.598Z,3.40
2023-03-26T17:11:07.609Z,2.80
2023-03-26T17:12:07.549Z,3.30
2023-03-26T17:13:07.639Z,2.90
2023-03-26T17:14:07.557Z,3.60
2023-03-26T17:15:07.605Z,2.60
2023-03-26T17:16:07.552Z,2.30
2023-03-26T17:17:07.483Z,3.00
2023-03-26T17:18:07.742Z,3.80
2023-03-26T17:19:07.619Z,1.90
2023-03-26T17:20:07.524Z,3.50
2023-03-26T17:21:07.444Z,3.70
2023-03-26T17:22:07.451Z,3.10
2023-03-26T17:23:07.438Z,2.40
2023-03-26T17:24:07.446Z,2.10
2023-03-26T17:25:08.437Z,3.90
2023-03-26T17:26:07.429Z,4.70
2023-03-26T17:27:07.390Z,3.30
2023-03-26T17:28:07.401Z,3.20
2023-03-26T17:29:07.482Z,3.30
2023-03-26T17:30:07.361Z,3.20
2023-03-26T17:31:07.418Z,4.70
2023-03-26T17:32:07.329Z,4.20
2023-03-26T17:33:07.297Z,3.50
2023-03-26T17:34:07.424Z,3.50
2023-03-26T17:35:07.391Z,5.80
2023-03-26T17:36:07.328Z,4.80
2023-03-26T17:37:07.318Z,4.10
2023-03-26T17:38:07.369Z,5.00
2023-03-26T17:39:07.286Z,6.40
2023-03-26T17:40:07.263Z,5.40
2023-03-26T17:41:07.833Z,7.40
2023-03-26T17:42:07.252Z,7.40
2023-03-26T17:43:07.294Z,5.80
2023-03-26T17:44:07.804Z,7.40
2023-03-26T17:45:07.201Z,7.10
2023-03-26T17:46:07.254Z,8.00
2023-03-26T17:47:07.188Z,8.30
2023-03-26T17:48:07.245Z,8.10
2023-03-26T17:49:07.224Z,7.20
2023-03-26T17:50:07.209Z,5.70
2023-03-26T17:51:07.187Z,4.60
2023-03-26T17:52:07.197Z,3.70
2023-03-26T17:53:07.142Z,2.30
2023-03-26T17:54:07.188Z,3.20
2023-03-26T17:55:07.159Z,2.10
2023-03-26T17:56:07.112Z,2.70
2023-03-26T17:57:07.132Z,2.10
2023-03-26T17:58:07.119Z,1.40
2023-03-26T17:59:11.447Z,2.00
2023-03-26T18:00:07.075Z,1.30
2023-03-26T18:01:07.081Z,1.70
2023-03-26T18:02:07.150Z,2.50
2023-03-26T18:03:07.160Z,2.10
2023-03-26T18:04:07.101Z,1.40
2023-03-26T18:05:07.074Z,3.30
2023-03-26T18:06:07.650Z,1.20
2023-03-26T18:07:07.027Z,1.60
2023-03-26T18:08:06.986Z,1.10
2023-03-26T18:09:08.073Z,1.80
2023-03-26T18:10:06.990Z,1.60
2023-03-26T18:11:07.834Z,1.10
2023-03-26T18:12:06.963Z,2.50
2023-03-26T18:13:06.969Z,1.60
2023-03-26T18:14:06.986Z,1.00
2023-03-26T18:15:06.929Z,1.10
2023-03-26T18:16:06.949Z,1.70
2023-03-26T18:17:06.921Z,1.40
2023-03-26T18:18:06.989Z,1.70
2023-03-26T18:19:06.891Z,1.10
2023-03-26T18:20:06.849Z,2.10
2023-03-26T18:21:06.875Z,0.90
2023-03-26T18:22:06.911Z,1.10
2023-03-26T18:23:06.829Z,1.10
2023-03-26T18:24:06.866Z,1.40
2023-03-26T18:25:06.818Z,1.60
2023-03-26T18:26:06.815Z,0.90
2023-03-26T18:27:06.828Z,0.90
2023-03-26T18:28:06.802Z,0.40
2023-03-26T18:29:06.840Z,0.90
2023-03-26T18:30:06.813Z,0.50
2023-03-26T18:31:06.716Z,0.60
2023-03-26T18:32:06.829Z,1.20
2023-03-26T18:33:06.794Z,0.70
2023-03-26T18:34:06.805Z,0.30
2023-03-26T18:35:06.692Z,0.80
2023-03-26T18:36:07.719Z,0.50
2023-03-26T18:37:06.747Z,0.80
2023-03-26T18:38:06.664Z,0.80
2023-03-26T18:39:06.697Z,0.80
2023-03-26T18:40:06.685Z,0.80
2023-03-26T18:41:06.650Z,0.90
2023-03-26T18:42:06.619Z,0.70
2023-03-26T18:43:07.168Z,0.70
2023-03-26T18:44:06.641Z,0.70
2023-03-26T18:45:06.584Z,0.80
2023-03-26T18:46:06.682Z,0.60
2023-03-26T18:47:06.570Z,0.60
2023-03-26T18:48:06.691Z,1.00
2023-03-26T18:49:06.589Z,0.40
2023-03-26T18:50:06.535Z,0.40
2023-03-26T18:51:06.584Z,0.30
2023-03-26T18:52:06.548Z,0.80
2023-03-26T18:53:06.535Z,0.80
2023-03-26T18:54:06.645Z,0.40
2023-03-26T18:55:07.334Z,0.20
2023-03-26T18:56:06.511Z,0.30
2023-03-26T18:57:15.897Z,0.20
2023-03-26T18:58:07.508Z,0.30
2023-03-26T18:59:06.543Z,0.20
2023-03-26T19:00:06.425Z,0.40
2023-03-26T19:01:10.150Z,0.50
2023-03-26T19:02:08.372Z,0.40
2023-03-26T19:03:06.496Z,0.40
2023-03-26T19:04:06.406Z,0.50
2023-03-26T19:05:06.410Z,1.60
2023-03-26T19:06:06.482Z,0.50
2023-03-26T19:07:06.404Z,0.40
2023-03-26T19:08:06.391Z,0.30
2023-03-26T19:09:11.308Z,0.90
2023-03-26T19:10:07.373Z,0.70
2023-03-26T19:11:06.362Z,0.60
2023-03-26T19:12:06.315Z,0.60
2023-03-26T19:13:06.456Z,0.70
2023-03-26T19:14:06.339Z,1.00
2023-03-26T19:15:06.328Z,0.70
2023-03-26T19:16:06.298Z,0.90
2023-03-26T19:17:06.282Z,0.80
2023-03-26T19:18:06.949Z,0.50
2023-03-26T19:19:06.325Z,0.40
2023-03-26T19:20:06.240Z,0.50
2023-03-26T19:21:06.240Z,0.70
2023-03-26T19:22:06.200Z,0.50
2023-03-26T19:23:06.198Z,0.60
2023-03-26T19:24:06.271Z,0.70
2023-03-26T19:25:06.859Z,1.00
2023-03-26T19:26:06.175Z,0.80
2023-03-26T19:27:07.046Z,0.50
2023-03-26T19:28:06.159Z,0.60
2023-03-26T19:29:06.176Z,0.60
2023-03-26T19:30:06.193Z,0.60
2023-03-26T19:31:06.225Z,2.90
2023-03-26T19:32:06.171Z,1.30
2023-03-26T19:33:13.058Z,1.60
2023-03-26T19:34:07.216Z,2.10
2023-03-26T19:35:06.199Z,3.00
2023-03-26T19:36:06.743Z,3.50
2023-03-26T19:37:06.071Z,3.80
2023-03-26T19:38:06.357Z,4.70
2023-03-26T19:39:06.095Z,5.60
2023-03-26T19:40:06.175Z,5.50
2023-03-26T19:41:06.061Z,5.80
2023-03-26T19:42:06.111Z,5.60
2023-03-26T19:43:06.056Z,5.90
2023-03-26T19:44:06.364Z,6.80
2023-03-26T19:45:06.077Z,7.10
2023-03-26T19:46:06.048Z,6.90
2023-03-26T19:47:06.040Z,6.10
2023-03-26T19:48:14.879Z,5.70
2023-03-26T19:49:08.068Z,7.70
2023-03-26T19:50:06.009Z,8.20